x

West Dixon Entrance (46205) Wave Buoy

8:00pm - Sun 25th Jan 2015 All times are PST. -8 hours from GMT.

  • Sig Wave height 9.2ft
  • Peak Period 10s
  • Wind
    7mph, 9mph gusts
  • Sea Temp 48°f
  • Air Temp 46°f
  • Sea Pressure 1013.4mb
  • West Dixon Entrance
  • West Dixon Entrance

More Historic Weather Station data

Upgrade to MSW Pro to gain access to the past 30 days of data for over 8000 Wavebouys and Weather Stations around the globe.

Join Pro

Comparision Forecast

View Surf forecast
   
Sun 01/25 8:00pm 9ft 10s 7 9 mph 1013.4mb 48f 46f
7:00pm 9ft 11s 9 13 mph 1012.8mb 47f 46f
6:00pm 9.5ft 12s 13 16 mph 1012.7mb 47f 46f
5:00pm 9.5ft 12s 11 13 mph 1012.4mb 47f 46f
4:00pm 9ft 12s 13 16 mph 1012.3mb 47f 46f
3:00pm 10.5ft 12s 16 18 mph 1012.5mb 47f 47f
2:00pm 10ft 14s 16 20 mph 1012.4mb 47f 47f
1:00pm 11ft 11s 18 25 mph 1012.9mb 47f 46f
12:00pm 12ft 11s 16 20 mph 1012.6mb 47f 46f
11:00am 12.5ft 11s 13 18 mph 1012.2mb 47f 47f
10:00am 13ft 11s 13 18 mph 1012mb 47f 45f
9:00am 13.5ft 12s 18 22 mph 1011.7mb 48f 46f
8:00am 14ft 11s 18 25 mph 1011mb 48f 45f
7:00am 14ft 11s 22 29 mph 1010.5mb 48f 47f
6:00am 14ft 12s 18 22 mph 1010.3mb 48f 47f
5:00am 14ft 11s 16 20 mph 1010.2mb 47f 47f
4:00am 15.5ft 12s 18 22 mph 1009.6mb 47f 47f
3:00am 16ft 12s 22 27 mph 1009mb 48f 47f
2:00am 17ft 14s 22 29 mph 1007.6mb 47f 47f
1:00am 19.5ft 12s 25 31 mph 1006.2mb 47f 47f
12:00am 21.5ft 14s 29 36 mph 1004.5mb 47f 47f
Sat 01/24 11:00pm 23.5ft 14s 36 45 mph 1001.7mb 46f 47f
9:00pm 25ft 12s 45 58 mph 994.7mb 47f 47f
8:00pm 25ft 12s 47 65 mph 991.5mb 47f 47f
7:00pm 21.5ft 11s 47 63 mph 988.2mb 47f 47f
5:00pm  -   -  43
mph
985.2mb 47f 48f
1:00pm 13ft 8s 34 40 mph 990.6mb 48f 51f
12:00pm 11.5ft 14s 31 40 mph 992.5mb 48f 50f
11:00am 11ft 14s 27 36 mph 995.7mb 48f 48f
10:00am 11ft 12s 31 38 mph 998.3mb 48f 48f
9:00am 11.5ft 14s 36 45 mph 999.1mb 48f 47f
8:00am 12ft 14s 29 36 mph 1004.2mb 48f 47f
7:00am 13ft 12s 25 34 mph 1007.5mb 48f 48f
6:00am 12ft 14s 27 34 mph 1010mb 48f 49f
5:00am 12ft 14s 27 34 mph 1011.4mb 48f 49f
4:00am 12.5ft 14s 22 29 mph 1012.8mb 48f 49f
3:00am 14ft 13s 20 25 mph 1014mb 48f 48f
2:00am 14ft 14s 18 22 mph 1014.5mb 48f 48f
1:00am 15ft 14s 16 20 mph 1015mb 48f 48f
12:00am 15ft 14s 18 20 mph 1015.1mb 48f 49f
Fri 01/23 11:00pm 16ft 14s 16 22 mph 1014.7mb 48f 49f
10:00pm 17.5ft 14s 20 27 mph 1014.7mb 48f 49f
9:00pm 15.5ft 14s 20 25 mph 1014.4mb 48f 49f
8:00pm 14ft 15s 22 27 mph 1013.3mb 48f 49f
7:00pm 12ft 14s 22 27 mph 1011.8mb 48f 49f
6:00pm 11ft 15s 22 29 mph 1010.8mb 48f 49f
5:00pm 11ft 13s 22 29 mph 1009.7mb 48f 49f
4:00pm 11ft 15s 22 27 mph 1008.8mb 48f 49f
3:00pm 11ft 13s 25 29 mph 1007.7mb 48f 49f
2:00pm 11ft 16s 25 31 mph 1006.6mb 48f 49f
1:00pm 14ft 14s 25 29 mph 1005.4mb 48f 49f
12:00pm 13ft 16s 25 31 mph 1004.5mb 48f 49f
11:00am 14ft 15s 22 27 mph 1003.7mb 48f 49f
10:00am 13ft 16s 27 34 mph 1002.7mb 48f 49f
9:00am 13.5ft 15s 13 18 mph 1001.3mb 48f 50f
8:00am 14ft 16s 18 25 mph 1000.4mb 49f 49f
7:00am 14ft 17s 27 36 mph 999.4mb 48f 49f
6:00am  -   -  27
mph
1000.6mb 48f 49f
5:00am  -   -  29
mph
1001.2mb - 49f
4:00am 12ft 9s 27 34 mph 1002.4mb 48f 48f
3:00am 12ft 17s 29 36 mph 1004.3mb 47f 48f
2:00am 11ft 17s 27 34 mph 1006.5mb 47f 48f
1:00am 11ft 18s 27 31 mph 1007.3mb 47f 48f
12:00am 11ft 10s 22 27 mph 1007.4mb 47f 48f
Thu 01/22 11:00pm 11.5ft 10s 18 22 mph 1008mb 47f 49f
10:00pm 13ft 12s 18 22 mph 1007.7mb 47f 48f
9:00pm 12.5ft 10s 16 22 mph 1007.2mb 47f 48f
8:00pm 13ft 10s 20 27 mph 1006.4mb 47f 49f
7:00pm 12ft 10s 18 22 mph 1004.5mb 48f 48f
6:00pm 12.5ft 9s 18 22 mph 1002.7mb 47f 48f
5:00pm 14ft 8s 18 22 mph 1000.1mb 48f 49f
4:00pm 14.5ft 9s 27 36 mph 998.4mb 48f 49f
3:00pm 13ft 7s 38 49 mph 997.5mb 47f 49f
2:00pm 13ft 7s 36 43 mph 998.7mb 47f 49f
1:00pm 12.5ft 7s 34 43 mph 1001mb 47f 49f
12:00pm 12ft 9s 31 38 mph 1002.7mb 48f 50f
11:00am 11.5ft 10s  -  2 mph 1004.5mb 48f 50f
10:00am 12ft 10s  -  2 mph 1004.7mb 47f 50f
9:00am 11ft 10s 2
mph
1003.9mb 47f 49f
8:00am 11ft 10s  -  2 mph 1005.5mb 47f 49f
7:00am 10.5ft 10s  -  2 mph 1006.4mb 47f 49f
6:00am 12ft 11s  -  2 mph 1006.8mb 48f 49f